Time;durP1;ratioP1;P1;durP2;ratioP2;P2;SDS_P1;SDS_P2;PMS_P1;PMS_P2;Temp;Humidity;BMP_temperature;BMP_pressure;BME280_temperature;BME280_humidity;BME280_pressure;Samples;Min_cycle;Max_cycle;Signal;HPM_P1;HPM_P2
2023/07/28 00:01:38;;;;;;;39.13;20.17;;;18.10;99.90;;;;;;5100564;28;20054;-57
2023/07/28 00:04:07;;;;;;;39.75;20.58;;;18.10;99.90;;;;;;5103897;28;20071;-57
2023/07/28 00:06:33;;;;;;;42.20;20.77;;;18.00;99.90;;;;;;5101790;28;20589;-57
2023/07/28 00:08:58;;;;;;;39.83;20.67;;;18.10;99.90;;;;;;5103840;28;20051;-57
2023/07/28 00:11:24;;;;;;;40.38;20.85;;;18.10;99.90;;;;;;5102965;28;20086;-57
2023/07/28 00:13:50;;;;;;;41.25;20.50;;;18.10;99.90;;;;;;5102380;28;20043;-57
2023/07/28 00:16:16;;;;;;;49.75;22.58;;;18.10;99.90;;;;;;5103566;28;20101;-57
2023/07/28 00:18:41;;;;;;;42.78;21.45;;;18.10;99.90;;;;;;5101618;28;20070;-57
2023/07/28 00:21:07;;;;;;;41.38;20.95;;;18.00;99.90;;;;;;5103731;28;20040;-57
2023/07/28 00:23:33;;;;;;;50.88;21.42;;;18.10;99.90;;;;;;5100018;28;20076;-57
2023/07/28 00:25:58;;;;;;;40.20;21.45;;;18.10;99.90;;;;;;5103761;28;20036;-57
2023/07/28 00:28:24;;;;;;;45.67;21.60;;;18.00;99.90;;;;;;5102435;28;20055;-57
2023/07/28 00:30:50;;;;;;;49.78;22.10;;;18.00;99.90;;;;;;5102120;28;20040;-56
2023/07/28 00:33:16;;;;;;;41.75;21.52;;;18.00;99.90;;;;;;5103154;28;20052;-57
2023/07/28 00:35:42;;;;;;;41.53;19.90;;;18.10;99.90;;;;;;5101504;28;20040;-57
2023/07/28 00:38:09;;;;;;;43.67;20.80;;;18.10;99.90;;;;;;5136036;27;20367;-58
2023/07/28 00:40:35;;;;;;;42.67;20.02;;;18.10;99.90;;;;;;5100866;28;20610;-57
2023/07/28 00:43:01;;;;;;;46.03;20.75;;;18.00;99.90;;;;;;5103123;28;20113;-57
2023/07/28 00:45:27;;;;;;;47.78;21.63;;;18.10;99.90;;;;;;5100307;28;20051;-57
2023/07/28 00:47:54;;;;;;;46.58;20.92;;;18.00;99.90;;;;;;5101988;28;20036;-58
2023/07/28 00:50:20;;;;;;;42.63;21.40;;;18.10;99.90;;;;;;5102882;28;20036;-57
2023/07/28 00:52:46;;;;;;;39.13;19.52;;;18.00;99.90;;;;;;5101395;28;20036;-57
2023/07/28 00:55:12;;;;;;;44.10;20.95;;;18.00;99.90;;;;;;5102992;28;20048;-57
2023/07/28 00:57:39;;;;;;;51.42;21.67;;;18.10;99.90;;;;;;5133529;27;20131;-57
2023/07/28 01:00:05;;;;;;;45.40;21.10;;;18.10;99.90;;;;;;5103226;28;20075;-57
2023/07/28 01:02:31;;;;;;;45.58;20.40;;;18.10;99.90;;;;;;5099630;28;20070;-57
2023/07/28 01:04:57;;;;;;;44.80;21.25;;;18.10;99.90;;;;;;5101971;28;20086;-58
2023/07/28 01:07:29;;;;;;;48.63;20.08;;;18.00;99.90;;;;;;5102531;28;20111;-57
2023/07/28 01:10:02;;;;;;;46.80;21.38;;;18.10;99.90;;;;;;5100901;28;20078;-57
2023/07/28 01:12:28;;;;;;;48.78;21.05;;;18.00;99.90;;;;;;5102575;28;20024;-57
2023/07/28 01:14:54;;;;;;;50.15;22.52;;;18.10;99.90;;;;;;5100268;28;20066;-57
2023/07/28 01:17:23;;;;;;;43.95;21.90;;;18.00;99.90;;;;;;5084657;28;20036;-57
2023/07/28 01:19:49;;;;;;;43.72;20.50;;;18.00;99.90;;;;;;5101581;28;20487;-57
2023/07/28 01:22:33;;;;;;;46.38;21.25;;;18.00;99.90;;;;;;5099991;28;20043;-58
2023/07/28 01:25:23;;;;;;;40.70;19.98;;;18.00;99.90;;;;;;5102507;28;20077;-58
2023/07/28 01:27:51;;;;;;;46.72;21.85;;;18.00;99.90;;;;;;5098954;28;20044;-57
2023/07/28 01:30:17;;;;;;;49.60;22.48;;;18.10;99.90;;;;;;5102401;28;20048;-58
2023/07/28 01:32:42;;;;;;;42.78;21.83;;;18.10;99.90;;;;;;5101166;28;20036;-57
2023/07/28 01:35:08;;;;;;;46.88;21.92;;;18.10;99.90;;;;;;5100960;28;20040;-57
2023/07/28 01:37:34;;;;;;;45.25;21.35;;;18.10;99.90;;;;;;5101878;28;20059;-58
2023/07/28 01:40:01;;;;;;;39.63;21.20;;;18.10;99.90;;;;;;5100197;28;20048;-57
2023/07/28 01:42:26;;;;;;;38.35;18.83;;;18.00;99.90;;;;;;5101999;28;20056;-58
2023/07/28 01:44:52;;;;;;;43.90;20.90;;;18.00;99.90;;;;;;5099933;28;20505;-58
2023/07/28 01:47:18;;;;;;;42.00;20.00;;;18.00;99.90;;;;;;5102217;28;20044;-59
2023/07/28 01:49:43;;;;;;;48.45;21.05;;;18.10;99.90;;;;;;5100684;28;20048;-57
2023/07/28 01:52:09;;;;;;;42.55;20.75;;;18.00;99.90;;;;;;5100939;28;20102;-58
2023/07/28 01:54:34;;;;;;;43.65;20.75;;;18.00;99.90;;;;;;5101641;28;20036;-58
2023/07/28 01:57:00;;;;;;;45.90;20.05;;;18.00;99.90;;;;;;5100040;28;20115;-58
2023/07/28 01:59:26;;;;;;;50.83;20.25;;;18.10;99.90;;;;;;5101875;28;20032;-58
2023/07/28 02:01:51;;;;;;;46.05;20.00;;;18.00;99.90;;;;;;5098115;28;20036;-58
2023/07/28 02:04:17;;;;;;;48.28;19.75;;;18.10;99.90;;;;;;5102028;28;20144;-56
2023/07/28 02:06:43;;;;;;;47.75;20.90;;;18.00;99.90;;;;;;5100014;28;20036;-58
2023/07/28 02:09:09;;;;;;;42.28;19.08;;;18.00;99.90;;;;;;5100838;28;20070;-58
2023/07/28 02:11:34;;;;;;;46.03;20.30;;;18.00;99.90;;;;;;5101023;28;20044;-58
2023/07/28 02:14:00;;;;;;;36.40;19.60;;;18.10;99.90;;;;;;5098976;28;20047;-58
2023/07/28 02:16:27;;;;;;;40.63;20.23;;;18.00;99.90;;;;;;5099895;28;20040;-58
2023/07/28 02:18:54;;;;;;;39.33;18.70;;;18.10;99.90;;;;;;5099310;28;20048;-58
2023/07/28 02:21:20;;;;;;;41.92;17.20;;;18.10;99.90;;;;;;5101528;28;20371;-58
2023/07/28 02:23:45;;;;;;;39.97;18.90;;;18.10;99.90;;;;;;5099570;28;20639;-57
2023/07/28 02:26:11;;;;;;;37.10;18.67;;;18.00;99.90;;;;;;5099644;28;20572;-58
2023/07/28 02:28:37;;;;;;;39.33;18.45;;;18.10;99.90;;;;;;5100844;28;20048;-57
2023/07/28 02:31:03;;;;;;;38.80;17.63;;;18.00;99.90;;;;;;5099406;28;20047;-58
2023/07/28 02:33:35;;;;;;;41.30;18.00;;;18.10;99.90;;;;;;5100707;28;20043;-58
2023/07/28 02:36:01;;;;;;;33.53;18.40;;;18.00;99.90;;;;;;5099223;28;20103;-58
2023/07/28 02:38:27;;;;;;;43.88;19.85;;;18.00;99.90;;;;;;5100921;28;20141;-58
2023/07/28 02:40:53;;;;;;;40.83;19.08;;;18.10;99.90;;;;;;5099288;28;20051;-58
2023/07/28 02:43:18;;;;;;;39.95;19.15;;;18.10;99.90;;;;;;5100310;28;20074;-58
2023/07/28 02:45:48;;;;;;;43.38;19.00;;;18.10;99.90;;;;;;5100567;28;20044;-58
2023/07/28 02:48:14;;;;;;;42.60;19.38;;;18.00;99.90;;;;;;5099105;28;20040;-58
2023/07/28 02:50:45;;;;;;;38.75;19.90;;;18.00;99.90;;;;;;5099501;28;20443;-58
2023/07/28 02:53:11;;;;;;;43.92;19.02;;;18.10;99.90;;;;;;5098922;28;20051;-58
2023/07/28 02:55:44;;;;;;;45.13;19.05;;;18.00;99.90;;;;;;5101098;28;20036;-58
2023/07/28 02:58:10;;;;;;;36.78;18.10;;;18.10;99.90;;;;;;5099163;28;20044;-57
2023/07/28 03:00:40;;;;;;;38.55;19.17;;;18.10;99.90;;;;;;5099911;28;20048;-58
2023/07/28 03:03:10;;;;;;;47.90;19.83;;;18.10;99.90;;;;;;5098993;28;20350;-58
2023/07/28 03:05:36;;;;;;;35.88;18.20;;;18.10;99.90;;;;;;5098385;28;20051;-58
2023/07/28 03:08:03;;;;;;;35.78;18.58;;;18.10;99.90;;;;;;5100603;28;20040;-58
2023/07/28 03:10:28;;;;;;;36.60;18.20;;;18.10;99.90;;;;;;5098163;28;20047;-58
2023/07/28 03:12:55;;;;;;;38.90;19.38;;;18.10;99.90;;;;;;5100566;28;20101;-58
2023/07/28 03:15:24;;;;;;;40.65;19.40;;;18.10;99.90;;;;;;5097650;28;20496;-58
2023/07/28 03:17:50;;;;;;;43.92;19.85;;;18.10;99.90;;;;;;5099285;28;20036;-58
2023/07/28 03:20:16;;;;;;;40.35;19.25;;;18.10;99.90;;;;;;5099926;28;20065;-58
2023/07/28 03:22:42;;;;;;;39.10;19.42;;;18.10;99.90;;;;;;5098310;28;20044;-58
2023/07/28 03:25:08;;;;;;;40.35;19.33;;;18.10;99.90;;;;;;5098620;28;20040;-58
2023/07/28 03:27:34;;;;;;;39.70;19.20;;;18.10;99.90;;;;;;5097137;28;20074;-58
2023/07/28 03:30:01;;;;;;;37.90;18.88;;;18.10;99.90;;;;;;5082256;28;20044;-59
2023/07/28 03:32:26;;;;;;;45.50;19.65;;;17.90;99.90;;;;;;5098371;28;20044;-58
2023/07/28 03:34:52;;;;;;;44.72;19.90;;;18.10;99.90;;;;;;5099454;28;20050;-58
2023/07/28 03:37:18;;;;;;;40.45;18.98;;;18.10;99.90;;;;;;5099811;28;20117;-58
2023/07/28 03:39:44;;;;;;;46.88;19.83;;;18.10;99.90;;;;;;5098094;28;20047;-58
2023/07/28 03:42:10;;;;;;;41.92;18.88;;;18.10;99.90;;;;;;5099778;28;20028;-57
2023/07/28 03:44:37;;;;;;;49.75;20.20;;;18.10;99.90;;;;;;5097811;28;20227;-58
2023/07/28 03:47:04;;;;;;;42.33;20.52;;;18.10;99.90;;;;;;5100147;28;20051;-58
2023/07/28 03:49:29;;;;;;;47.15;19.02;;;18.10;99.90;;;;;;5098290;28;20412;-57
2023/07/28 03:51:55;;;;;;;42.72;18.67;;;18.10;99.90;;;;;;5099373;28;20059;-58
2023/07/28 03:54:21;;;;;;;39.92;19.42;;;18.10;99.90;;;;;;5098246;28;20424;-57
2023/07/28 03:56:47;;;;;;;43.97;20.65;;;18.10;99.90;;;;;;5097995;28;20040;-59
2023/07/28 03:59:12;;;;;;;45.38;20.33;;;18.10;99.90;;;;;;5099644;28;20119;-58
2023/07/28 04:01:38;;;;;;;42.70;19.73;;;18.10;99.90;;;;;;5130544;27;20046;-58
2023/07/28 04:04:04;;;;;;;39.03;18.50;;;18.10;99.90;;;;;;5099912;28;20044;-58
2023/07/28 04:06:43;;;;;;;43.13;20.20;;;18.10;99.90;;;;;;5098011;28;20075;-58
2023/07/28 04:09:11;;;;;;;42.30;19.38;;;18.10;99.90;;;;;;5098983;28;20044;-58
2023/07/28 04:11:37;;;;;;;46.92;20.17;;;18.10;99.90;;;;;;5099267;28;20047;-58
2023/07/28 04:14:03;;;;;;;45.13;19.08;;;18.10;99.90;;;;;;5097702;28;20040;-58
2023/07/28 04:16:29;;;;;;;49.45;21.02;;;18.10;99.90;;;;;;5099647;28;20102;-58
2023/07/28 04:18:55;;;;;;;37.95;19.67;;;18.10;99.90;;;;;;5097491;28;20040;-58
2023/07/28 04:21:21;;;;;;;46.03;20.45;;;18.10;99.90;;;;;;5100133;28;20079;-58
2023/07/28 04:23:46;;;;;;;41.80;19.95;;;18.10;99.90;;;;;;5098071;28;20051;-58
2023/07/28 04:26:12;;;;;;;49.58;20.40;;;18.10;99.90;;;;;;5098996;28;20051;-58
2023/07/28 04:28:38;;;;;;;48.38;20.48;;;18.10;99.90;;;;;;5099160;28;20101;-58
2023/07/28 04:31:03;;;;;;;40.67;19.95;;;18.10;99.90;;;;;;5097708;28;20403;-58
2023/07/28 04:33:29;;;;;;;45.72;20.42;;;18.10;99.90;;;;;;5099485;28;20066;-59
2023/07/28 04:35:55;;;;;;;42.47;21.08;;;18.10;99.90;;;;;;5097412;28;20072;-58
2023/07/28 04:38:20;;;;;;;44.10;20.27;;;18.10;99.90;;;;;;5101712;28;20055;-59
2023/07/28 04:40:46;;;;;;;51.97;20.58;;;18.10;99.90;;;;;;5101314;28;20060;-58
2023/07/28 04:43:12;;;;;;;40.35;19.75;;;18.10;99.90;;;;;;5135556;27;20071;-58
2023/07/28 04:45:37;;;;;;;47.47;20.58;;;18.10;99.90;;;;;;5135221;27;20535;-58
2023/07/28 04:48:03;;;;;;;39.78;20.40;;;18.10;99.90;;;;;;5101555;28;20036;-58
2023/07/28 04:50:29;;;;;;;39.42;20.58;;;18.20;99.90;;;;;;5102973;28;20100;-58
2023/07/28 04:52:55;;;;;;;38.38;20.17;;;18.20;99.90;;;;;;5100964;28;20074;-58
2023/07/28 04:55:20;;;;;;;43.92;21.10;;;18.20;99.90;;;;;;5103162;28;20033;-58
2023/07/28 04:57:46;;;;;;;47.60;21.42;;;18.20;99.90;;;;;;5100686;28;20067;-58
2023/07/28 05:00:12;;;;;;;41.80;19.88;;;18.20;99.90;;;;;;5101633;28;20056;-58
2023/07/28 05:02:38;;;;;;;37.05;20.00;;;18.20;99.90;;;;;;5101869;28;20051;-57
2023/07/28 05:05:04;;;;;;;39.85;19.17;;;18.20;99.90;;;;;;5101554;28;20396;-58
2023/07/28 05:07:30;;;;;;;35.60;19.23;;;18.30;99.90;;;;;;5102638;28;20036;-59
2023/07/28 05:09:56;;;;;;;37.88;19.98;;;18.30;99.90;;;;;;5100787;28;20051;-59
2023/07/28 05:12:22;;;;;;;43.75;19.60;;;18.30;99.90;;;;;;5102409;28;20051;-58
2023/07/28 05:14:47;;;;;;;41.08;20.02;;;18.20;99.90;;;;;;5100446;28;20036;-58
2023/07/28 05:17:13;;;;;;;35.28;18.08;;;18.30;99.90;;;;;;5102986;28;20036;-58
2023/07/28 05:19:39;;;;;;;36.00;18.45;;;18.30;99.90;;;;;;5101332;28;20107;-58
2023/07/28 05:22:06;;;;;;;31.33;17.15;;;18.30;99.90;;;;;;5101561;28;20044;-58
2023/07/28 05:24:33;;;;;;;33.63;17.90;;;18.30;99.90;;;;;;5100937;28;20044;-58
2023/07/28 05:26:58;;;;;;;31.85;18.02;;;18.30;99.90;;;;;;5100296;28;20051;-58
2023/07/28 05:29:24;;;;;;;42.55;18.80;;;18.30;99.90;;;;;;5102619;28;20064;-58
2023/07/28 05:31:50;;;;;;;35.72;18.63;;;18.30;99.90;;;;;;5100176;28;20047;-58
2023/07/28 05:34:16;;;;;;;38.20;18.85;;;18.40;99.90;;;;;;5102647;28;20055;-58
2023/07/28 05:36:42;;;;;;;43.13;19.05;;;18.30;99.90;;;;;;5100883;28;20182;-58
2023/07/28 05:39:08;;;;;;;33.05;17.95;;;18.30;99.90;;;;;;5101443;28;20123;-58
2023/07/28 05:41:34;;;;;;;36.53;17.90;;;18.30;99.90;;;;;;5101352;28;20036;-58
2023/07/28 05:43:59;;;;;;;37.00;18.23;;;18.30;99.90;;;;;;5100103;28;20048;-58
2023/07/28 05:46:25;;;;;;;37.10;18.55;;;18.30;99.90;;;;;;5102032;28;20052;-59
2023/07/28 05:48:51;;;;;;;31.58;18.10;;;18.40;99.90;;;;;;5098990;28;20036;-58
2023/07/28 05:51:16;;;;;;;42.17;18.25;;;18.40;99.90;;;;;;5102215;28;20043;-58
2023/07/28 05:53:42;;;;;;;37.20;18.48;;;18.40;99.90;;;;;;5100374;28;20111;-58
2023/07/28 05:56:08;;;;;;;38.90;19.00;;;18.50;99.90;;;;;;5101160;28;20040;-58
2023/07/28 05:58:33;;;;;;;42.53;19.75;;;18.50;99.90;;;;;;5101443;28;20051;-58
2023/07/28 06:00:59;;;;;;;40.30;19.38;;;18.50;99.90;;;;;;5098655;28;20048;-58
2023/07/28 06:03:26;;;;;;;34.63;18.02;;;18.60;99.90;;;;;;5101340;28;20047;-58
2023/07/28 06:05:52;;;;;;;35.58;18.10;;;18.70;99.90;;;;;;5099398;28;20040;-58
2023/07/28 06:08:18;;;;;;;30.75;18.00;;;18.70;99.90;;;;;;5101914;28;20040;-58
2023/07/28 06:10:43;;;;;;;32.83;19.00;;;18.70;99.90;;;;;;5099552;28;20055;-57
2023/07/28 06:13:09;;;;;;;30.85;16.67;;;18.70;99.90;;;;;;5101111;28;20036;-60
2023/07/28 06:15:35;;;;;;;37.38;17.70;;;18.80;99.90;;;;;;5100839;28;20052;-58
2023/07/28 06:18:02;;;;;;;29.08;17.65;;;18.80;99.90;;;;;;5099778;28;20091;-60
2023/07/28 06:20:29;;;;;;;25.35;17.10;;;18.80;99.90;;;;;;5101241;28;20153;-58
2023/07/28 06:22:55;;;;;;;29.27;15.95;;;18.90;99.90;;;;;;5099284;28;20094;-59
2023/07/28 06:25:21;;;;;;;24.27;14.50;;;19.00;99.90;;;;;;5101350;28;20037;-59
2023/07/28 06:27:47;;;;;;;28.58;13.25;;;19.00;99.90;;;;;;5098001;28;20044;-57
2023/07/28 06:30:13;;;;;;;24.55;13.60;;;19.00;99.90;;;;;;5099999;28;20412;-59
2023/07/28 06:32:39;;;;;;;24.83;14.57;;;19.00;99.90;;;;;;5100279;28;20048;-58
2023/07/28 06:35:07;;;;;;;29.88;15.63;;;19.10;99.90;;;;;;5099668;28;20040;-58
2023/07/28 06:37:33;;;;;;;26.90;15.43;;;19.10;99.90;;;;;;5099370;28;20048;-59
2023/07/28 06:39:59;;;;;;;27.17;16.60;;;19.10;99.90;;;;;;5098795;28;20161;-59
2023/07/28 06:42:26;;;;;;;33.88;16.88;;;19.20;99.90;;;;;;5100808;28;20043;-60
2023/07/28 06:44:52;;;;;;;32.83;16.60;;;19.20;99.90;;;;;;5098837;28;20512;-58
2023/07/28 06:47:18;;;;;;;29.80;16.13;;;19.20;99.90;;;;;;5100959;28;20054;-59
2023/07/28 06:49:44;;;;;;;27.67;15.48;;;19.20;99.90;;;;;;5099822;28;20405;-58
2023/07/28 06:52:10;;;;;;;26.50;14.73;;;19.20;99.90;;;;;;5099464;28;20040;-59
2023/07/28 06:54:36;;;;;;;24.25;14.23;;;19.30;99.90;;;;;;5100454;28;20051;-58
2023/07/28 06:57:02;;;;;;;23.55;15.05;;;19.30;99.90;;;;;;5098642;28;20166;-59
2023/07/28 06:59:28;;;;;;;30.58;15.48;;;19.30;99.90;;;;;;5100872;28;20032;-58
2023/07/28 07:01:54;;;;;;;27.25;14.65;;;19.30;99.90;;;;;;5098257;28;20036;-58
2023/07/28 07:04:19;;;;;;;24.42;14.10;;;19.40;99.90;;;;;;5099343;28;20044;-58
2023/07/28 07:06:45;;;;;;;26.88;14.68;;;19.40;99.90;;;;;;5099267;28;20071;-58
2023/07/28 07:09:14;;;;;;;26.80;14.38;;;19.40;99.90;;;;;;5097959;28;20082;-58
2023/07/28 07:11:40;;;;;;;19.23;13.70;;;19.40;99.90;;;;;;5098560;28;20040;-59
2023/07/28 07:14:06;;;;;;;20.10;13.80;;;19.40;99.90;;;;;;5114414;28;20051;-59
2023/07/28 07:16:33;;;;;;;23.17;13.27;;;19.40;99.90;;;;;;5100450;28;20036;-59
2023/07/28 07:18:59;;;;;;;27.45;13.98;;;19.50;99.90;;;;;;5097056;28;20048;-59
2023/07/28 07:21:29;;;;;;;28.17;15.35;;;19.50;99.90;;;;;;5099285;28;20563;-58
2023/07/28 07:23:55;;;;;;;30.17;15.93;;;19.60;99.90;;;;;;5098912;28;20047;-58
2023/07/28 07:26:21;;;;;;;19.67;13.13;;;19.60;99.90;;;;;;5099214;28;20043;-58
2023/07/28 07:28:46;;;;;;;19.33;12.38;;;19.70;99.90;;;;;;5099914;28;20046;-58
2023/07/28 07:31:13;;;;;;;21.45;12.68;;;19.90;99.90;;;;;;5098377;28;20140;-58
2023/07/28 07:33:39;;;;;;;21.70;11.93;;;20.10;99.90;;;;;;5098916;28;20055;-58
2023/07/28 07:36:05;;;;;;;22.48;12.43;;;20.30;99.90;;;;;;5096771;28;20036;-58
2023/07/28 07:38:31;;;;;;;16.77;12.25;;;20.40;99.90;;;;;;5100227;28;20056;-58
2023/07/28 07:40:57;;;;;;;22.48;12.63;;;20.50;99.90;;;;;;5097489;28;20052;-58
2023/07/28 07:43:22;;;;;;;17.00;10.90;;;20.50;99.90;;;;;;5098882;28;20079;-58
2023/07/28 07:45:50;;;;;;;18.67;10.10;;;20.50;99.90;;;;;;5099714;28;20055;-58
2023/07/28 07:48:15;;;;;;;15.10;9.75;;;20.40;99.90;;;;;;5096825;28;20044;-59
2023/07/28 07:50:41;;;;;;;14.98;9.18;;;20.50;99.90;;;;;;5099766;28;20488;-58
2023/07/28 07:53:08;;;;;;;22.73;8.63;;;20.50;99.90;;;;;;5096374;28;20185;-58
2023/07/28 07:55:33;;;;;;;13.93;8.35;;;20.50;99.90;;;;;;5100144;28;20040;-58
2023/07/28 07:57:59;;;;;;;14.27;8.32;;;20.50;99.90;;;;;;5098133;28;20080;-57
2023/07/28 08:00:25;;;;;;;17.98;8.73;;;20.60;99.90;;;;;;5099268;28;20064;-58
2023/07/28 08:02:51;;;;;;;15.98;9.10;;;20.60;99.90;;;;;;5098483;28;20072;-59
2023/07/28 08:05:17;;;;;;;16.95;9.35;;;20.60;99.90;;;;;;5096336;28;20069;-58
2023/07/28 08:07:44;;;;;;;17.92;9.02;;;20.60;99.90;;;;;;5099700;28;20051;-59
2023/07/28 08:10:09;;;;;;;12.57;9.30;;;20.70;99.90;;;;;;5097604;28;20040;-58
2023/07/28 08:12:35;;;;;;;19.85;9.45;;;20.90;99.90;;;;;;5101094;28;20038;-58
2023/07/28 08:15:01;;;;;;;15.93;9.35;;;21.00;99.90;;;;;;5102171;28;20105;-58
2023/07/28 08:17:26;;;;;;;15.20;9.20;;;21.30;99.90;;;;;;5103338;28;20479;-58
2023/07/28 08:19:52;;;;;;;13.90;8.65;;;21.60;99.90;;;;;;5103066;28;20085;-58
2023/07/28 08:22:18;;;;;;;15.38;8.88;;;21.80;99.90;;;;;;5101824;28;20054;-58
2023/07/28 08:24:43;;;;;;;14.80;8.95;;;21.90;99.90;;;;;;5103316;28;20090;-59
2023/07/28 08:27:09;;;;;;;15.38;9.52;;;22.10;99.90;;;;;;5101537;28;20050;-59
2023/07/28 08:29:35;;;;;;;16.67;9.02;;;22.10;99.90;;;;;;5103725;28;20056;-58
2023/07/28 08:32:01;;;;;;;18.83;10.68;;;22.00;99.90;;;;;;5101331;28;20052;-57
2023/07/28 08:34:27;;;;;;;20.15;10.80;;;22.00;99.90;;;;;;5084827;28;20090;-58
2023/07/28 08:36:53;;;;;;;17.63;10.07;;;21.90;99.90;;;;;;5102622;28;20036;-58
2023/07/28 08:39:19;;;;;;;18.15;10.30;;;21.90;99.90;;;;;;5100428;28;20056;-58
2023/07/28 08:41:44;;;;;;;17.83;9.93;;;21.90;99.90;;;;;;5102933;28;20103;-59
2023/07/28 08:44:10;;;;;;;17.40;10.30;;;21.80;99.90;;;;;;5101147;28;20040;-59
2023/07/28 08:46:36;;;;;;;18.67;9.13;;;21.90;99.90;;;;;;5103246;28;20047;-58
2023/07/28 08:49:02;;;;;;;14.55;9.27;;;21.90;99.90;;;;;;5099474;28;20035;-58
2023/07/28 08:51:28;;;;;;;14.27;8.80;;;21.80;99.90;;;;;;5085144;28;20058;-58
2023/07/28 08:53:53;;;;;;;18.67;9.25;;;21.80;99.90;;;;;;5101883;28;20044;-58
2023/07/28 08:56:20;;;;;;;16.08;8.07;;;21.80;99.90;;;;;;5101925;28;20036;-59
2023/07/28 08:58:46;;;;;;;18.77;8.90;;;22.00;99.90;;;;;;5101533;28;20381;-59
2023/07/28 09:01:12;;;;;;;15.18;10.05;;;22.00;99.90;;;;;;5100984;28;20036;-58
2023/07/28 09:03:43;;;;;;;17.40;9.77;;;21.90;99.90;;;;;;5102944;28;20090;-58
2023/07/28 09:06:09;;;;;;;12.70;9.38;;;21.80;99.90;;;;;;5100674;28;20068;-58
2023/07/28 09:08:36;;;;;;;18.92;9.75;;;21.80;99.90;;;;;;5101751;28;20088;-58
2023/07/28 09:11:04;;;;;;;17.02;9.52;;;22.00;99.90;;;;;;5101613;28;20048;-58
2023/07/28 09:13:37;;;;;;;13.55;8.30;;;22.20;99.90;;;;;;5101220;28;20036;-58
2023/07/28 09:16:03;;;;;;;14.07;9.27;;;22.20;99.90;;;;;;5102377;28;20047;-60
2023/07/28 09:18:29;;;;;;;14.88;8.93;;;22.10;99.90;;;;;;5100693;28;20044;-58
2023/07/28 09:20:55;;;;;;;20.88;9.30;;;21.90;99.90;;;;;;5102918;28;20044;-58
2023/07/28 09:23:29;;;;;;;18.30;9.88;;;21.80;99.90;;;;;;5100380;28;20052;-58
2023/07/28 09:26:02;;;;;;;15.38;10.25;;;21.70;99.90;;;;;;5101172;28;20422;-58
2023/07/28 09:28:41;;;;;;;15.68;9.88;;;21.70;99.90;;;;;;5102032;28;20043;-57
2023/07/28 09:31:08;;;;;;;15.55;8.75;;;21.70;99.90;;;;;;5100321;28;20106;-58
2023/07/28 09:33:35;;;;;;;12.10;7.90;;;21.80;99.90;;;;;;5102410;28;20035;-58
2023/07/28 09:36:09;;;;;;;16.35;8.95;;;21.90;99.90;;;;;;5100128;28;20400;-58
2023/07/28 09:38:38;;;;;;;20.27;10.98;;;21.90;99.90;;;;;;5102089;28;20673;-58
2023/07/28 09:41:08;;;;;;;16.20;9.30;;;21.90;99.90;;;;;;5101068;28;20047;-57
2023/07/28 09:43:34;;;;;;;22.30;10.95;;;21.80;99.90;;;;;;5100555;28;20115;-58
2023/07/28 09:46:03;;;;;;;18.27;10.60;;;21.80;99.90;;;;;;5100587;28;20188;-57
2023/07/28 09:48:31;;;;;;;19.10;11.07;;;21.70;99.90;;;;;;5099978;28;20056;-58
2023/07/28 09:51:02;;;;;;;22.52;10.98;;;21.80;99.90;;;;;;5100744;28;20040;-58
2023/07/28 09:53:28;;;;;;;17.33;10.65;;;21.90;99.90;;;;;;5100163;28;20040;-58
2023/07/28 09:55:57;;;;;;;20.40;10.70;;;22.00;99.90;;;;;;5100178;28;20072;-59
2023/07/28 09:58:25;;;;;;;17.30;10.63;;;22.00;99.90;;;;;;5101397;28;20399;-58
2023/07/28 10:00:51;;;;;;;14.18;9.65;;;22.00;99.90;;;;;;5100099;28;20127;-58
2023/07/28 10:03:17;;;;;;;14.95;9.93;;;22.10;99.90;;;;;;5100206;28;20104;-58
2023/07/28 10:05:44;;;;;;;13.50;9.93;;;22.10;99.90;;;;;;5099477;28;20054;-58
2023/07/28 10:08:12;;;;;;;14.10;9.38;;;22.30;99.90;;;;;;5083375;28;20104;-55
2023/07/28 10:10:39;;;;;;;15.70;9.55;;;22.40;99.90;;;;;;5099665;28;20051;-58
2023/07/28 10:13:05;;;;;;;12.10;8.93;;;22.50;99.90;;;;;;5100925;28;20118;-57
2023/07/28 10:15:32;;;;;;;12.90;8.73;;;22.50;99.90;;;;;;5100768;28;20043;-58
2023/07/28 10:17:59;;;;;;;12.20;10.07;;;22.40;99.90;;;;;;5099616;28;20044;-58
2023/07/28 10:20:31;;;;;;;15.98;9.38;;;22.40;99.90;;;;;;5100022;28;20040;-57
2023/07/28 10:23:13;;;;;;;13.90;9.95;;;22.40;99.90;;;;;;5099019;28;20097;-58
2023/07/28 10:25:40;;;;;;;16.05;10.40;;;22.40;99.90;;;;;;5101667;28;20087;-57
2023/07/28 10:28:28;;;;;;;12.07;8.90;;;22.40;99.90;;;;;;5099899;28;20043;-57
2023/07/28 10:30:55;;;;;;;12.38;8.43;;;22.40;99.90;;;;;;5088067;28;20463;-60
2023/07/28 10:33:36;;;;;;;11.43;8.52;;;22.20;99.90;;;;;;5100771;28;20076;-57
2023/07/28 10:36:15;;;;;;;14.88;9.20;;;22.10;99.90;;;;;;5098381;28;20043;-57
2023/07/28 10:38:43;;;;;;;15.07;9.98;;;22.10;99.90;;;;;;5099543;28;20063;-58
2023/07/28 10:41:14;;;;;;;13.73;10.23;;;22.10;99.90;;;;;;5100081;28;20540;-57
2023/07/28 10:43:41;;;;;;;14.85;9.73;;;22.10;99.90;;;;;;5099011;28;20044;-59
2023/07/28 10:46:09;;;;;;;16.60;9.40;;;22.20;99.90;;;;;;5100620;28;20036;-57
2023/07/28 10:48:37;;;;;;;15.50;9.65;;;22.10;99.90;;;;;;5098987;28;20036;-58
2023/07/28 10:51:03;;;;;;;13.85;8.68;;;22.00;99.90;;;;;;5101098;28;20039;-59
2023/07/28 10:53:28;;;;;;;16.48;8.57;;;22.00;99.90;;;;;;5097526;28;20036;-59
2023/07/28 10:55:54;;;;;;;14.63;7.80;;;21.90;99.90;;;;;;5100265;28;20102;-59
2023/07/28 10:58:21;;;;;;;12.80;7.13;;;21.90;99.90;;;;;;5100005;28;20083;-57
2023/07/28 11:00:46;;;;;;;11.80;7.35;;;21.80;99.90;;;;;;5098811;28;20559;-57
2023/07/28 11:03:12;;;;;;;14.55;7.00;;;21.80;99.90;;;;;;5082272;28;20058;-59
2023/07/28 11:05:39;;;;;;;14.10;7.22;;;21.80;99.90;;;;;;5098359;28;20518;-59
2023/07/28 11:08:07;;;;;;;11.35;6.63;;;21.80;99.90;;;;;;5100584;28;20055;-58
2023/07/28 11:10:35;;;;;;;9.70;6.88;;;21.90;99.90;;;;;;5098516;28;20036;-58
2023/07/28 11:13:06;;;;;;;10.68;7.10;;;21.80;99.90;;;;;;5099924;28;20092;-59
2023/07/28 11:15:32;;;;;;;9.10;6.78;;;21.80;99.90;;;;;;5098588;28;20456;-58
2023/07/28 11:17:57;;;;;;;11.80;7.20;;;22.00;99.90;;;;;;5096994;28;20047;-59
2023/07/28 11:20:30;;;;;;;10.98;7.00;;;22.10;99.90;;;;;;5100185;28;20052;-59
2023/07/28 11:23:03;;;;;;;11.45;7.53;;;22.20;99.90;;;;;;5098177;28;20549;-59
2023/07/28 11:25:30;;;;;;;11.10;6.78;;;22.30;99.90;;;;;;5100425;28;20448;-59
2023/07/28 11:27:56;;;;;;;11.93;6.05;;;22.40;99.90;;;;;;5098732;28;20044;-58
2023/07/28 11:30:23;;;;;;;13.55;6.20;;;22.50;99.90;;;;;;5098037;28;20036;-59
2023/07/28 11:32:53;;;;;;;8.70;5.95;;;22.60;99.90;;;;;;5098594;28;20036;-59
2023/07/28 11:35:21;;;;;;;12.65;6.25;;;22.70;99.90;;;;;;5098549;28;20048;-59
2023/07/28 11:37:52;;;;;;;10.07;5.93;;;22.80;99.90;;;;;;5100010;28;20036;-59
2023/07/28 11:40:21;;;;;;;7.63;5.85;;;22.90;99.90;;;;;;5097461;28;20054;-59
2023/07/28 11:42:55;;;;;;;8.55;5.47;;;23.00;99.90;;;;;;5098865;28;20040;-59
2023/07/28 11:45:24;;;;;;;8.32;5.68;;;22.90;99.90;;;;;;5099232;28;20040;-58
2023/07/28 11:48:05;;;;;;;8.15;5.38;;;23.00;99.90;;;;;;5097744;28;20040;-59
2023/07/28 11:50:39;;;;;;;9.25;6.03;;;22.90;99.90;;;;;;5099630;28;20051;-59
2023/07/28 11:53:08;;;;;;;6.70;4.80;;;22.80;99.90;;;;;;5097756;28;20047;-58
2023/07/28 11:55:38;;;;;;;8.05;5.00;;;22.90;99.90;;;;;;5100302;28;20381;-59
2023/07/28 11:58:08;;;;;;;8.15;4.88;;;23.00;99.90;;;;;;5098648;28;20123;-56
2023/07/28 12:00:36;;;;;;;7.55;4.80;;;23.20;99.90;;;;;;5098540;28;20040;-59
2023/07/28 12:03:09;;;;;;;7.65;4.78;;;23.20;99.90;;;;;;5099479;28;20090;-59
2023/07/28 12:05:36;;;;;;;8.95;3.97;;;23.30;99.90;;;;;;5097787;28;20428;-59
2023/07/28 12:08:05;;;;;;;9.15;4.20;;;23.30;99.90;;;;;;5098931;28;20052;-59
2023/07/28 12:10:31;;;;;;;6.50;4.00;;;23.30;99.90;;;;;;5097725;28;20036;-59
2023/07/28 12:13:03;;;;;;;7.72;4.10;;;23.30;99.90;;;;;;5099400;28;20034;-59
2023/07/28 12:15:32;;;;;;;5.45;4.10;;;23.30;99.90;;;;;;5099066;28;20079;-58
2023/07/28 12:18:11;;;;;;;6.95;4.03;;;23.30;99.90;;;;;;5097935;28;20071;-59
2023/07/28 12:20:39;;;;;;;9.27;4.13;;;23.30;99.90;;;;;;5099609;28;20048;-58
2023/07/28 12:23:06;;;;;;;7.20;4.50;;;23.30;99.90;;;;;;5097305;28;20040;-59
2023/07/28 12:25:32;;;;;;;6.63;4.20;;;23.30;99.90;;;;;;5100157;28;20040;-59
2023/07/28 12:27:58;;;;;;;6.85;4.18;;;23.40;99.90;;;;;;5098011;28;20063;-59
2023/07/28 12:30:24;;;;;;;10.35;4.38;;;23.40;99.90;;;;;;5098723;28;20123;-59